Time;durP1;ratioP1;P1;durP2;ratioP2;P2;SDS_P1;SDS_P2;PMS_P1;PMS_P2;Temp;Humidity;BMP_temperature;BMP_pressure;BME280_temperature;BME280_humidity;BME280_pressure;Samples;Min_cycle;Max_cycle;Signal;HPM_P1;HPM_P2
2022/08/02 00:01:43;;;;;;;46.75;25.23;;;17.50;99.90;;;;;;10450218;28;20056;-82
2022/08/02 00:06:44;;;;;;;38.03;21.70;;;17.40;99.90;;;;;;10440578;28;20691;-81
2022/08/02 00:11:44;;;;;;;47.55;24.98;;;17.40;99.90;;;;;;10442139;28;20534;-80
2022/08/02 00:16:45;;;;;;;48.25;25.40;;;17.40;99.90;;;;;;10446510;28;20043;-83
2022/08/02 00:21:45;;;;;;;45.10;25.90;;;17.40;99.90;;;;;;10443282;28;20029;-81
2022/08/02 00:26:46;;;;;;;43.67;24.73;;;17.40;99.90;;;;;;10439597;28;20037;-80
2022/08/02 00:31:46;;;;;;;70.40;30.98;;;17.30;99.90;;;;;;10444235;28;20107;-81
2022/08/02 00:36:47;;;;;;;79.15;33.88;;;17.30;99.90;;;;;;10443424;28;20029;-83
2022/08/02 00:41:50;;;;;;;74.80;31.67;;;17.30;99.90;;;;;;10427051;28;20132;-80
2022/08/02 00:46:51;;;;;;;81.55;33.95;;;17.30;99.90;;;;;;10442882;28;20079;-80
2022/08/02 00:51:52;;;;;;;86.22;35.03;;;17.30;99.90;;;;;;10442010;28;20638;-81
2022/08/02 00:56:52;;;;;;;104.43;39.30;;;17.30;99.90;;;;;;10440609;28;20021;-81
2022/08/02 01:01:54;;;;;;;112.07;39.72;;;17.40;99.90;;;;;;10450022;28;20048;-82
2022/08/02 01:06:55;;;;;;;124.60;43.92;;;17.30;99.90;;;;;;10437395;28;20091;-81
2022/08/02 01:11:55;;;;;;;115.97;37.67;;;17.30;99.90;;;;;;10441326;28;20154;-81
2022/08/02 01:17:05;;;;;;;137.00;42.97;;;17.20;99.90;;;;;;10450829;28;20096;-82
2022/08/02 01:22:42;;;;;;;98.82;35.08;;;17.00;99.90;;;;;;10449109;28;20435;-82
2022/08/02 01:28:15;;;;;;;83.68;35.03;;;16.90;99.90;;;;;;10454167;28;20121;-81
2022/08/02 01:33:18;;;;;;;117.05;40.08;;;16.80;99.90;;;;;;10437268;28;20056;-80
2022/08/02 01:38:32;;;;;;;94.10;36.80;;;16.90;99.90;;;;;;10444887;28;20545;-82
2022/08/02 01:43:34;;;;;;;65.75;32.25;;;17.10;99.90;;;;;;10454379;28;20032;-81
2022/08/02 01:48:36;;;;;;;64.88;30.33;;;17.20;99.90;;;;;;10452595;28;20511;-80
2022/08/02 01:53:39;;;;;;;75.47;33.38;;;17.20;99.90;;;;;;10441816;28;20400;-81
2022/08/02 01:58:42;;;;;;;61.50;30.17;;;17.30;99.90;;;;;;10431132;28;20045;-81
2022/08/02 02:03:44;;;;;;;80.25;33.58;;;17.30;99.90;;;;;;10434631;28;20128;-80
2022/08/02 02:08:46;;;;;;;88.25;34.63;;;17.40;99.90;;;;;;10446873;28;20085;-81
2022/08/02 02:13:47;;;;;;;77.22;34.70;;;17.40;99.90;;;;;;10456928;28;20067;-80
2022/08/02 02:18:49;;;;;;;74.75;31.60;;;17.40;99.90;;;;;;10450108;28;20033;-81
2022/08/02 02:23:50;;;;;;;72.97;33.17;;;17.30;99.90;;;;;;10446900;28;20104;-82
2022/08/02 02:28:53;;;;;;;94.10;39.00;;;17.30;99.90;;;;;;10449280;28;20032;-81
2022/08/02 02:34:01;;;;;;;90.03;36.58;;;17.30;99.90;;;;;;10448918;28;20029;-81
2022/08/02 02:39:04;;;;;;;113.53;40.08;;;17.30;99.90;;;;;;10446103;28;20047;-80
2022/08/02 02:44:08;;;;;;;105.85;38.28;;;17.30;99.90;;;;;;10442426;28;20039;-81
2022/08/02 02:49:10;;;;;;;95.78;37.30;;;17.20;99.90;;;;;;10448209;28;20461;-81
2022/08/02 02:54:12;;;;;;;103.65;39.40;;;17.30;99.90;;;;;;10441333;28;20062;-82
2022/08/02 02:59:14;;;;;;;124.22;43.00;;;17.30;99.90;;;;;;10448109;28;20099;-80
2022/08/02 03:04:15;;;;;;;90.70;37.67;;;17.30;99.90;;;;;;10438174;28;20056;-80
2022/08/02 03:09:16;;;;;;;80.78;36.72;;;17.30;99.90;;;;;;10447126;28;20029;-81
2022/08/02 03:14:17;;;;;;;96.13;39.58;;;17.40;99.90;;;;;;10445622;28;20043;-85
2022/08/02 03:19:19;;;;;;;77.80;35.95;;;17.40;99.90;;;;;;10441581;28;20683;-82
2022/08/02 03:24:19;;;;;;;75.25;36.08;;;17.40;99.90;;;;;;10443384;28;20033;-83
2022/08/02 03:29:20;;;;;;;74.05;33.33;;;17.40;99.90;;;;;;10433919;28;20032;-81
2022/08/02 03:34:21;;;;;;;80.18;37.13;;;17.50;99.90;;;;;;10444849;28;20036;-82
2022/08/02 03:39:24;;;;;;;80.68;35.28;;;17.50;99.90;;;;;;10446232;28;20037;-82
2022/08/02 03:44:25;;;;;;;81.28;36.75;;;17.60;99.90;;;;;;10447203;28;20036;-81
2022/08/02 03:49:26;;;;;;;69.78;34.38;;;17.60;99.90;;;;;;10439431;28;20028;-82
2022/08/02 03:54:27;;;;;;;73.13;35.53;;;17.60;99.90;;;;;;10445838;28;20112;-81
2022/08/02 03:59:28;;;;;;;76.88;35.28;;;17.70;99.90;;;;;;10445753;28;20791;-82
2022/08/02 04:04:28;;;;;;;86.60;37.00;;;17.70;99.90;;;;;;10440850;28;20031;-82
2022/08/02 04:09:29;;;;;;;83.00;35.22;;;17.80;99.90;;;;;;10439452;23;20068;-82
2022/08/02 04:14:30;;;;;;;89.43;36.70;;;17.70;99.90;;;;;;10422785;28;20045;-83
2022/08/02 04:19:37;;;;;;;81.88;36.85;;;17.80;99.90;;;;;;10409368;28;20682;-84
2022/08/02 04:24:43;;;;;;;93.10;38.20;;;17.90;99.90;;;;;;10426761;28;20541;-80
2022/08/02 04:29:45;;;;;;;74.45;33.30;;;17.80;99.90;;;;;;10416958;28;20029;-83
2022/08/02 04:34:46;;;;;;;78.53;35.30;;;17.90;99.90;;;;;;10412753;28;20385;-84
2022/08/02 04:39:47;;;;;;;77.15;34.85;;;17.90;99.90;;;;;;10401589;28;20087;-82
2022/08/02 04:44:48;;;;;;;65.50;31.27;;;18.00;99.90;;;;;;10392891;28;20034;-81
2022/08/02 04:49:49;;;;;;;64.57;31.83;;;18.00;99.90;;;;;;10414510;28;20112;-82
2022/08/02 04:54:50;;;;;;;68.97;31.73;;;18.10;99.90;;;;;;10410175;28;20465;-82
2022/08/02 04:59:50;;;;;;;65.70;31.38;;;18.20;99.90;;;;;;10392603;28;20538;-82
2022/08/02 05:04:51;;;;;;;72.63;32.40;;;18.30;99.90;;;;;;10419792;28;20102;-82
2022/08/02 05:09:51;;;;;;;51.78;26.98;;;18.30;99.90;;;;;;10452012;28;20023;-81
2022/08/02 05:14:52;;;;;;;52.97;28.25;;;18.50;99.90;;;;;;10450427;28;20528;-82
2022/08/02 05:19:52;;;;;;;53.63;27.42;;;18.50;99.90;;;;;;10449599;28;20037;-81
2022/08/02 05:24:53;;;;;;;50.33;26.98;;;18.60;99.90;;;;;;10445422;28;20033;-82
2022/08/02 05:29:54;;;;;;;48.17;24.00;;;18.70;99.90;;;;;;10461972;28;20104;-82
2022/08/02 05:34:55;;;;;;;40.30;24.05;;;18.70;99.90;;;;;;10447222;28;20036;-81
2022/08/02 05:39:56;;;;;;;42.50;25.38;;;18.80;99.90;;;;;;10473567;28;20029;-81
2022/08/02 05:44:56;;;;;;;38.80;24.90;;;18.80;99.90;;;;;;10458834;28;20029;-81
2022/08/02 05:49:57;;;;;;;42.08;27.77;;;18.90;99.90;;;;;;10451430;28;20380;-82
2022/08/02 05:55:14;;;;;;;45.47;28.40;;;18.80;99.90;;;;;;10455133;28;20033;-81
2022/08/02 06:00:15;;;;;;;43.15;27.85;;;18.80;99.90;;;;;;10453448;28;20121;-81
2022/08/02 06:05:19;;;;;;;46.63;29.33;;;18.80;99.90;;;;;;10472052;28;20045;-83
2022/08/02 06:10:20;;;;;;;46.88;28.67;;;18.90;99.90;;;;;;10456611;28;20021;-82
2022/08/02 06:15:21;;;;;;;42.13;26.08;;;18.90;99.90;;;;;;10463380;28;20040;-81
2022/08/02 06:20:22;;;;;;;47.50;28.67;;;18.80;99.90;;;;;;10469068;28;20496;-81
2022/08/02 06:25:24;;;;;;;42.75;27.67;;;18.70;99.90;;;;;;10462516;28;20025;-81
2022/08/02 06:30:25;;;;;;;44.40;27.70;;;18.80;99.90;;;;;;10453816;28;20408;-81
2022/08/02 06:36:19;;;;;;;44.05;27.13;;;18.80;99.90;;;;;;10461841;28;20113;-81
2022/08/02 06:41:23;;;;;;;44.13;28.75;;;18.80;99.90;;;;;;10468366;28;20131;-81
2022/08/02 06:46:23;;;;;;;45.75;29.67;;;18.90;99.90;;;;;;10445249;28;20025;-81
2022/08/02 06:51:24;;;;;;;46.50;30.05;;;19.00;99.90;;;;;;10455689;28;20028;-81
2022/08/02 06:56:25;;;;;;;46.88;29.60;;;19.10;99.90;;;;;;10481444;28;20587;-80
2022/08/02 07:01:26;;;;;;;48.40;31.02;;;19.20;99.90;;;;;;10464137;28;20438;-81
2022/08/02 07:07:23;;;;;;;49.28;31.75;;;19.20;99.90;;;;;;10457563;28;20052;-80
2022/08/02 07:12:23;;;;;;;51.50;34.10;;;19.20;99.90;;;;;;10430171;28;20048;-81
2022/08/02 07:17:24;;;;;;;52.65;34.92;;;19.10;99.90;;;;;;10446953;28;20032;-81
2022/08/02 07:22:26;;;;;;;50.55;33.60;;;19.10;99.90;;;;;;10455047;28;20016;-81
2022/08/02 07:27:27;;;;;;;51.67;34.55;;;19.30;99.90;;;;;;10453934;28;20456;-82
2022/08/02 07:32:30;;;;;;;46.33;32.08;;;19.60;99.90;;;;;;10464587;28;20115;-82
2022/08/02 07:37:34;;;;;;;37.83;26.63;;;19.70;99.90;;;;;;10438873;28;20025;-83
2022/08/02 07:42:35;;;;;;;42.78;29.27;;;19.90;99.90;;;;;;10481438;28;20020;-81
2022/08/02 07:47:44;;;;;;;40.25;29.15;;;19.90;99.90;;;;;;10470781;28;20104;-81
2022/08/02 07:53:44;;;;;;;33.78;24.17;;;20.10;99.90;;;;;;10488983;28;20094;-81
2022/08/02 07:58:45;;;;;;;33.30;25.23;;;20.60;99.90;;;;;;10472920;28;20118;-81
2022/08/02 08:03:45;;;;;;;31.45;23.73;;;20.80;99.90;;;;;;10439908;28;20073;-81
2022/08/02 08:08:52;;;;;;;28.95;23.20;;;20.90;99.90;;;;;;10470814;28;20056;-82
2022/08/02 08:14:30;;;;;;;27.85;21.70;;;21.00;99.90;;;;;;10449599;28;20491;-81
2022/08/02 08:19:30;;;;;;;24.67;19.88;;;21.10;99.90;;;;;;10456143;28;20096;-81
2022/08/02 08:24:31;;;;;;;23.08;18.38;;;21.20;99.90;;;;;;10463890;28;20119;-81
2022/08/02 08:29:44;;;;;;;22.98;17.63;;;21.20;99.90;;;;;;10453756;28;20610;-81
2022/08/02 08:34:48;;;;;;;21.05;18.40;;;21.20;99.90;;;;;;10466954;28;20060;-81
2022/08/02 08:45:48;;;;;;;20.08;16.52;;;21.20;99.90;;;;;;10450943;28;20107;-82
2022/08/02 08:50:56;;;;;;;20.55;16.17;;;21.10;99.90;;;;;;10438072;28;20021;-82
2022/08/02 08:55:58;;;;;;;19.33;17.08;;;21.10;99.90;;;;;;10456737;28;20040;-81
2022/08/02 09:00:59;;;;;;;18.02;15.13;;;21.20;99.90;;;;;;10460625;28;20036;-83
2022/08/02 09:06:00;;;;;;;17.98;15.25;;;21.70;99.90;;;;;;10445911;28;20053;-81
2022/08/02 09:11:00;;;;;;;19.58;15.20;;;21.70;99.90;;;;;;10461639;28;20040;-82
2022/08/02 09:16:03;;;;;;;15.80;14.20;;;21.70;99.90;;;;;;10449979;28;20028;-80
2022/08/02 09:21:09;;;;;;;16.48;14.70;;;21.60;99.90;;;;;;10450556;28;20589;-81
2022/08/02 09:26:12;;;;;;;16.55;14.80;;;21.40;99.90;;;;;;10431524;28;20471;-83
2022/08/02 09:31:15;;;;;;;17.65;15.85;;;21.30;99.90;;;;;;10446591;28;20017;-83
2022/08/02 09:36:16;;;;;;;16.85;15.02;;;21.10;99.90;;;;;;10464956;28;20155;-82
2022/08/02 09:41:25;;;;;;;18.10;16.25;;;20.90;99.90;;;;;;10461519;28;20025;-82
2022/08/02 09:46:29;;;;;;;20.48;16.98;;;21.00;99.90;;;;;;10459245;28;20089;-83
2022/08/02 09:51:39;;;;;;;17.20;15.43;;;21.20;99.90;;;;;;10451979;28;20024;-81
2022/08/02 09:56:44;;;;;;;14.98;13.43;;;21.40;99.90;;;;;;10451013;28;20104;-81
2022/08/02 10:01:48;;;;;;;14.38;12.95;;;21.80;99.90;;;;;;10440210;28;20064;-81
2022/08/02 10:06:50;;;;;;;14.13;12.65;;;22.30;99.90;;;;;;10452600;28;20499;-84
2022/08/02 10:11:51;;;;;;;14.57;12.88;;;22.80;99.90;;;;;;10456693;28;20036;-81
2022/08/02 10:16:57;;;;;;;14.48;12.63;;;23.20;99.90;;;;;;10468408;28;20017;-83
2022/08/02 10:22:03;;;;;;;13.75;12.25;;;23.80;99.90;;;;;;10442904;28;20504;-85
2022/08/02 10:27:09;;;;;;;14.50;12.27;;;23.60;99.90;;;;;;10434214;28;20045;-81
2022/08/02 10:32:14;;;;;;;16.55;13.48;;;23.10;99.90;;;;;;10461951;28;20021;-81
2022/08/02 10:37:15;;;;;;;13.05;11.75;;;22.90;99.90;;;;;;10462773;28;20037;-82
2022/08/02 10:42:46;;;;;;;12.88;11.48;;;22.60;99.90;;;;;;10458017;28;20634;-83
2022/08/02 10:48:10;;;;;;;17.08;15.20;;;22.80;99.90;;;;;;10475669;28;20056;-83
2022/08/02 10:53:40;;;;;;;15.63;13.77;;;23.40;99.90;;;;;;10455730;28;20574;-84
2022/08/02 10:58:40;;;;;;;15.32;13.73;;;24.00;99.90;;;;;;10444289;28;20029;-81
2022/08/02 11:03:43;;;;;;;21.35;14.30;;;24.00;99.90;;;;;;10443587;28;20016;-80
2022/08/02 11:08:44;;;;;;;13.95;12.52;;;24.30;99.90;;;;;;10467123;28;20121;-81
2022/08/02 11:14:06;;;;;;;12.55;11.25;;;24.20;99.90;;;;;;10456347;28;20025;-82
2022/08/02 11:19:07;;;;;;;12.95;11.32;;;24.10;99.90;;;;;;10465846;28;20064;-81
2022/08/02 11:24:25;;;;;;;13.55;12.07;;;24.30;99.90;;;;;;10473993;28;20032;-82
2022/08/02 11:29:43;;;;;;;15.98;13.68;;;24.20;99.90;;;;;;10453398;28;20083;-81
2022/08/02 11:34:46;;;;;;;17.30;15.68;;;23.70;99.90;;;;;;10454293;28;20490;-79
2022/08/02 11:39:51;;;;;;;19.23;17.25;;;23.30;99.90;;;;;;10458731;28;20033;-81
2022/08/02 11:44:51;;;;;;;16.60;14.38;;;23.80;99.90;;;;;;10452083;28;20586;-81
2022/08/02 11:50:06;;;;;;;14.77;13.45;;;24.00;99.90;;;;;;10456615;28;20111;-83
2022/08/02 11:55:09;;;;;;;12.45;11.15;;;23.90;99.90;;;;;;10457225;28;20033;-81
2022/08/02 12:00:17;;;;;;;12.15;10.95;;;24.00;99.90;;;;;;10456596;28;20115;-81
2022/08/02 12:05:21;;;;;;;13.00;11.60;;;24.00;99.90;;;;;;10450055;28;20175;-81
2022/08/02 12:10:23;;;;;;;13.68;10.65;;;23.90;99.90;;;;;;10448524;28;20024;-80
2022/08/02 12:15:36;;;;;;;12.13;10.88;;;23.50;99.90;;;;;;10454295;28;20737;-81
2022/08/02 12:20:37;;;;;;;13.85;12.45;;;23.60;99.90;;;;;;10460820;28;20564;-80
2022/08/02 12:25:37;;;;;;;11.30;10.13;;;24.40;99.90;;;;;;10450194;28;20029;-80
2022/08/02 12:30:59;;;;;;;12.10;10.40;;;25.20;99.90;;;;;;10452187;28;20104;-83
2022/08/02 12:35:59;;;;;;;7.93;7.18;;;26.00;99.90;;;;;;10464275;28;20037;-81
2022/08/02 12:41:12;;;;;;;9.23;7.15;;;26.10;99.90;;;;;;10454824;28;20041;-82
2022/08/02 12:46:21;;;;;;;8.80;6.93;;;25.90;99.90;;;;;;10451679;28;20416;-82
2022/08/02 12:51:29;;;;;;;11.25;7.18;;;25.40;99.90;;;;;;10462329;28;20020;-81
2022/08/02 12:56:32;;;;;;;8.60;7.80;;;25.50;99.90;;;;;;10451177;28;20033;-81
2022/08/02 13:01:34;;;;;;;10.77;8.82;;;25.20;99.90;;;;;;10449594;28;20499;-81
2022/08/02 13:06:34;;;;;;;9.40;8.40;;;24.90;99.90;;;;;;10457316;28;20052;-80
2022/08/02 13:11:35;;;;;;;9.63;8.63;;;24.40;99.90;;;;;;10460839;28;20021;-81
2022/08/02 13:16:36;;;;;;;9.77;8.20;;;24.20;99.90;;;;;;10472833;28;20024;-81
2022/08/02 13:21:36;;;;;;;9.40;8.45;;;23.90;99.90;;;;;;10462684;28;20039;-81
2022/08/02 13:26:37;;;;;;;8.70;7.88;;;23.80;99.90;;;;;;10464582;28;20141;-81
2022/08/02 13:31:38;;;;;;;9.10;7.80;;;23.70;99.90;;;;;;10469136;28;20470;-81
2022/08/02 13:36:39;;;;;;;8.50;7.22;;;23.70;99.90;;;;;;10470984;28;20033;-80
2022/08/02 13:41:39;;;;;;;7.70;7.00;;;23.70;99.90;;;;;;10462092;28;20029;-79
2022/08/02 13:46:40;;;;;;;7.30;6.60;;;23.70;99.90;;;;;;10463589;28;20111;-82
2022/08/02 13:51:41;;;;;;;8.32;7.20;;;23.60;99.90;;;;;;10476147;28;20033;-81
2022/08/02 13:56:42;;;;;;;7.70;6.90;;;23.70;99.90;;;;;;10477472;28;20096;-80
2022/08/02 14:01:42;;;;;;;9.57;7.35;;;23.70;99.90;;;;;;10472248;28;20059;-80
2022/08/02 14:06:43;;;;;;;10.10;6.97;;;23.70;99.90;;;;;;10495656;23;20052;-82
2022/08/02 14:11:45;;;;;;;8.80;7.10;;;23.80;99.90;;;;;;10517526;28;20094;-79
2022/08/02 14:16:45;;;;;;;9.23;7.05;;;23.80;99.90;;;;;;10505167;28;20040;-82
2022/08/02 14:21:47;;;;;;;9.00;7.28;;;24.00;99.90;;;;;;10504944;28;20037;-81
2022/08/02 14:26:48;;;;;;;9.15;7.00;;;24.30;99.90;;;;;;10500307;28;20093;-82
2022/08/02 14:31:49;;;;;;;7.97;6.70;;;24.70;99.90;;;;;;10501972;28;20029;-82
2022/08/02 14:36:50;;;;;;;7.22;6.63;;;25.10;99.90;;;;;;10494978;28;20476;-81
2022/08/02 14:41:50;;;;;;;6.90;6.30;;;25.10;99.90;;;;;;10511348;28;20059;-81
2022/08/02 14:46:51;;;;;;;8.23;6.45;;;25.20;99.90;;;;;;10497409;28;20021;-81
2022/08/02 14:51:55;;;;;;;7.40;5.97;;;25.00;99.90;;;;;;10502090;28;20422;-80
2022/08/02 14:57:00;;;;;;;9.30;6.33;;;25.00;99.90;;;;;;10514987;28;20028;-81
2022/08/02 15:02:01;;;;;;;8.60;6.22;;;25.00;99.90;;;;;;10492561;28;20293;-80
2022/08/02 15:07:01;;;;;;;6.28;5.68;;;24.90;99.90;;;;;;10503166;28;20056;-82
2022/08/02 15:12:02;;;;;;;6.10;5.50;;;24.70;99.90;;;;;;10507329;28;20027;-81
2022/08/02 15:17:04;;;;;;;6.78;6.07;;;24.60;99.90;;;;;;10506572;28;20036;-79
2022/08/02 15:22:05;;;;;;;8.18;6.30;;;24.40;99.90;;;;;;10504488;28;20063;-80
2022/08/02 15:27:09;;;;;;;7.50;6.43;;;24.40;99.90;;;;;;10487271;28;20135;-81
2022/08/02 15:32:10;;;;;;;11.77;6.60;;;24.40;99.90;;;;;;10513289;28;20062;-83
2022/08/02 15:37:10;;;;;;;7.68;6.47;;;24.30;99.90;;;;;;10494704;28;20063;-83
2022/08/02 15:42:12;;;;;;;6.22;5.63;;;24.00;99.90;;;;;;10504017;28;20442;-80
2022/08/02 15:47:12;;;;;;;7.05;5.93;;;23.80;99.90;;;;;;10500123;28;20557;-81
2022/08/02 15:52:13;;;;;;;7.13;6.43;;;23.80;99.90;;;;;;10492031;28;20090;-81
2022/08/02 15:57:14;;;;;;;6.45;5.85;;;23.70;99.90;;;;;;10500348;28;20048;-82
2022/08/02 16:02:17;;;;;;;7.70;5.88;;;23.70;99.90;;;;;;10485827;28;20051;-83
2022/08/02 16:07:18;;;;;;;8.45;5.85;;;23.70;99.90;;;;;;10500087;28;20047;-82
2022/08/02 16:12:18;;;;;;;9.20;6.65;;;23.80;99.90;;;;;;10504585;28;20024;-81
2022/08/02 16:17:19;;;;;;;7.30;6.53;;;23.80;99.90;;;;;;10510020;28;20691;-81
2022/08/02 16:22:19;;;;;;;14.57;6.80;;;23.70;99.90;;;;;;10505499;28;20088;-79
2022/08/02 16:27:20;;;;;;;7.57;6.82;;;23.50;99.90;;;;;;10496285;28;20024;-82
2022/08/02 16:32:21;;;;;;;9.20;7.38;;;23.40;99.90;;;;;;10500246;23;20145;-80
2022/08/02 16:37:22;;;;;;;8.15;6.65;;;23.40;99.90;;;;;;10419110;28;20029;-82
2022/08/02 16:42:22;;;;;;;8.82;7.05;;;23.40;99.90;;;;;;10421054;28;20115;-80
2022/08/02 16:47:23;;;;;;;9.07;6.88;;;23.40;99.90;;;;;;10403147;28;20025;-80
2022/08/02 16:52:23;;;;;;;6.43;5.82;;;23.40;99.90;;;;;;10412154;28;20038;-82
2022/08/02 16:57:24;;;;;;;8.02;6.43;;;23.30;99.90;;;;;;10424058;28;20036;-81
2022/08/02 17:02:25;;;;;;;6.53;5.65;;;23.30;99.90;;;;;;10433874;28;20388;-82
2022/08/02 17:07:26;;;;;;;6.72;6.00;;;23.30;99.90;;;;;;10428399;28;20060;-83
2022/08/02 17:12:26;;;;;;;6.25;5.38;;;23.20;99.90;;;;;;10467350;28;20099;-81
2022/08/02 17:17:27;;;;;;;6.85;5.70;;;23.10;99.90;;;;;;10429134;28;20686;-82
2022/08/02 17:22:28;;;;;;;7.28;6.57;;;23.00;99.90;;;;;;10434291;28;20806;-82
2022/08/02 17:27:28;;;;;;;8.05;6.70;;;22.80;99.90;;;;;;10456793;28;20025;-83
2022/08/02 17:32:29;;;;;;;10.70;6.90;;;22.50;99.90;;;;;;10476616;28;20048;-81
2022/08/02 17:37:29;;;;;;;7.45;6.75;;;22.20;99.90;;;;;;10451535;28;20040;-82
2022/08/02 17:42:31;;;;;;;10.68;6.85;;;21.90;99.90;;;;;;10457097;28;20080;-83
2022/08/02 17:47:31;;;;;;;9.45;7.63;;;21.70;99.90;;;;;;10445852;28;20443;-81
2022/08/02 17:52:32;;;;;;;11.68;8.18;;;21.40;99.90;;;;;;10470690;28;20043;-82
2022/08/02 17:57:32;;;;;;;9.80;8.48;;;21.10;99.90;;;;;;10467013;28;20056;-83
2022/08/02 18:02:33;;;;;;;13.82;8.40;;;20.80;99.90;;;;;;10465393;28;20037;-83
2022/08/02 18:07:33;;;;;;;10.77;9.48;;;20.40;99.90;;;;;;10464672;28;20024;-81
2022/08/02 18:12:35;;;;;;;14.15;10.32;;;20.10;99.90;;;;;;10465264;28;20041;-83
2022/08/02 18:17:36;;;;;;;13.45;11.07;;;19.80;99.90;;;;;;10475033;28;20046;-81
2022/08/02 18:22:37;;;;;;;13.32;10.68;;;19.50;99.90;;;;;;10491131;28;20040;-81
2022/08/02 18:27:37;;;;;;;13.25;11.85;;;19.20;99.90;;;;;;10469969;28;20083;-81
2022/08/02 18:32:38;;;;;;;16.15;11.93;;;19.10;99.90;;;;;;10444840;28;20152;-81
2022/08/02 18:37:38;;;;;;;15.00;12.27;;;18.90;99.90;;;;;;10464480;28;20132;-81
2022/08/02 18:42:39;;;;;;;14.50;12.57;;;18.80;99.90;;;;;;10483158;28;20523;-82
2022/08/02 18:47:39;;;;;;;16.33;13.60;;;18.60;99.90;;;;;;10451825;28;20040;-83
2022/08/02 18:52:40;;;;;;;18.50;15.10;;;18.50;99.90;;;;;;10471154;28;20499;-81
2022/08/02 18:57:41;;;;;;;19.30;15.07;;;18.40;99.90;;;;;;10466533;28;20051;-80
2022/08/02 19:02:42;;;;;;;18.05;15.68;;;18.40;99.90;;;;;;10461704;28;20037;-80
2022/08/02 19:07:42;;;;;;;20.92;18.00;;;18.40;99.90;;;;;;10467677;28;20135;-80
2022/08/02 19:12:43;;;;;;;19.00;17.00;;;18.30;99.90;;;;;;10469070;28;20556;-80
2022/08/02 19:17:44;;;;;;;24.00;17.08;;;18.20;99.90;;;;;;10450257;28;20033;-81
2022/08/02 19:22:44;;;;;;;20.95;16.95;;;18.20;99.90;;;;;;10477931;28;20074;-81
2022/08/02 19:27:45;;;;;;;21.98;17.05;;;18.10;99.90;;;;;;10471705;28;20052;-80
2022/08/02 19:32:46;;;;;;;19.05;16.85;;;18.10;99.90;;;;;;10453328;28;20201;-80
2022/08/02 19:37:46;;;;;;;19.25;15.32;;;18.10;99.90;;;;;;10458188;28;20070;-80
2022/08/02 19:42:48;;;;;;;20.02;17.17;;;18.10;99.90;;;;;;10465853;28;20043;-81
2022/08/02 19:47:49;;;;;;;18.73;16.48;;;18.00;99.90;;;;;;10442058;28;20021;-80
2022/08/02 19:52:49;;;;;;;19.20;16.10;;;18.00;99.90;;;;;;10477801;28;20051;-80
2022/08/02 19:57:50;;;;;;;22.58;19.65;;;18.00;99.90;;;;;;10452406;23;20053;-79
2022/08/02 20:02:51;;;;;;;22.42;20.02;;;17.80;99.90;;;;;;10383202;28;20041;-80
2022/08/02 20:07:51;;;;;;;22.90;19.83;;;17.80;99.90;;;;;;10423774;28;20543;-80
2022/08/02 20:12:55;;;;;;;27.40;21.30;;;17.70;99.90;;;;;;10411452;28;20053;-79
2022/08/02 20:17:56;;;;;;;27.83;24.00;;;17.70;99.90;;;;;;10430103;28;20037;-79
2022/08/02 20:23:17;;;;;;;28.80;23.33;;;17.60;99.90;;;;;;10433395;28;20024;-80
2022/08/02 20:28:17;;;;;;;31.70;25.95;;;17.60;99.90;;;;;;10416445;28;20037;-80
2022/08/02 20:33:18;;;;;;;30.60;26.38;;;17.50;99.90;;;;;;10416242;23;20061;-80
2022/08/02 20:38:19;;;;;;;30.27;26.92;;;17.40;99.90;;;;;;10362590;28;20033;-80
2022/08/02 20:43:19;;;;;;;29.88;26.67;;;17.40;99.90;;;;;;10362730;28;20034;-80
2022/08/02 20:48:20;;;;;;;31.38;26.85;;;17.40;99.90;;;;;;10351439;28;20026;-80
2022/08/02 20:53:21;;;;;;;32.05;27.33;;;17.40;99.90;;;;;;10359799;28;20087;-81
2022/08/02 20:58:22;;;;;;;32.20;27.55;;;17.40;99.90;;;;;;10362382;28;20076;-80
2022/08/02 21:03:23;;;;;;;31.42;27.58;;;17.30;99.90;;;;;;10398185;23;20049;-80
2022/08/02 21:08:23;;;;;;;29.48;24.92;;;17.30;99.90;;;;;;10434964;28;20450;-80
2022/08/02 21:13:24;;;;;;;28.33;25.30;;;17.30;99.90;;;;;;10475771;28;20478;-80
2022/08/02 21:18:24;;;;;;;30.35;26.15;;;17.20;99.90;;;;;;10459754;28;20101;-80
2022/08/02 21:23:25;;;;;;;27.35;23.90;;;17.20;99.90;;;;;;10480818;28;20542;-79
2022/08/02 21:28:25;;;;;;;26.58;23.42;;;17.20;99.90;;;;;;10461114;28;20021;-79
2022/08/02 21:33:26;;;;;;;36.28;29.88;;;17.20;99.90;;;;;;10462484;28;20032;-79
2022/08/02 21:38:27;;;;;;;36.35;31.42;;;17.20;99.90;;;;;;10456333;28;20397;-80
2022/08/02 21:43:28;;;;;;;30.88;26.63;;;17.10;99.90;;;;;;10467240;28;20047;-80
2022/08/02 21:48:28;;;;;;;29.23;25.38;;;17.20;99.90;;;;;;10478773;28;20035;-80
2022/08/02 21:53:29;;;;;;;35.65;31.13;;;17.20;99.90;;;;;;10469999;28;20032;-80
2022/08/02 21:58:29;;;;;;;38.45;31.90;;;17.20;99.90;;;;;;10454006;28;20036;-79
2022/08/02 22:03:31;;;;;;;33.97;28.38;;;17.10;99.90;;;;;;10468171;28;20091;-80
2022/08/02 22:08:31;;;;;;;37.85;29.23;;;17.10;99.90;;;;;;10436528;28;20091;-80
2022/08/02 22:13:34;;;;;;;32.75;28.58;;;17.00;99.90;;;;;;10454727;28;20108;-80
2022/08/02 22:18:34;;;;;;;38.30;29.92;;;17.00;99.90;;;;;;10469723;28;20123;-80
2022/08/02 22:23:38;;;;;;;41.67;31.23;;;17.00;99.90;;;;;;10471753;28;20043;-80
2022/08/02 22:28:39;;;;;;;35.70;30.30;;;16.90;99.90;;;;;;10440026;28;20036;-79
2022/08/02 22:38:59;;;;;;;39.10;30.80;;;16.70;99.90;;;;;;10460226;28;20459;-79
2022/08/02 22:44:00;;;;;;;31.55;27.70;;;16.60;99.90;;;;;;10458729;28;20029;-79
2022/08/02 22:49:01;;;;;;;43.85;33.83;;;16.60;99.90;;;;;;10460993;28;20033;-79
2022/08/02 22:54:02;;;;;;;42.28;33.05;;;16.60;99.90;;;;;;10455785;28;20057;-79
2022/08/02 22:59:02;;;;;;;35.67;28.70;;;16.50;99.90;;;;;;10466485;28;20145;-79
2022/08/02 23:04:03;;;;;;;52.67;36.22;;;16.50;99.90;;;;;;10467821;28;20056;-79
2022/08/02 23:09:03;;;;;;;34.95;29.40;;;16.50;99.90;;;;;;10460027;28;20046;-78
2022/08/02 23:14:04;;;;;;;38.50;31.00;;;16.40;99.90;;;;;;10460570;28;20051;-79
2022/08/02 23:24:25;;;;;;;45.38;34.00;;;16.40;99.90;;;;;;10469171;28;20111;-79
2022/08/02 23:29:26;;;;;;;36.45;29.77;;;16.30;99.90;;;;;;10464538;28;20024;-79
2022/08/02 23:34:26;;;;;;;37.08;30.38;;;16.30;99.90;;;;;;10453772;28;20457;-79
2022/08/02 23:39:27;;;;;;;34.00;29.17;;;16.30;99.90;;;;;;10466456;28;20041;-78
2022/08/02 23:44:28;;;;;;;45.40;34.50;;;16.40;99.90;;;;;;10462496;28;20124;-79
2022/08/02 23:49:28;;;;;;;39.25;32.42;;;16.30;99.90;;;;;;10455202;28;20028;-79
2022/08/02 23:54:29;;;;;;;55.80;38.83;;;16.30;99.90;;;;;;10455360;28;20037;-80
2022/08/02 23:59:30;;;;;;;44.65;34.97;;;16.30;99.90;;;;;;10459486;28;20090;-79
